Time;durP1;ratioP1;P1;durP2;ratioP2;P2;SDS_P1;SDS_P2;PMS_P1;PMS_P2;Temp;Humidity;BMP_temperature;BMP_pressure;BME280_temperature;BME280_humidity;BME280_pressure;Samples;Min_cycle;Max_cycle;Signal;HPM_P1;HPM_P2
2022/09/01 00:02:09;;;;;;;15.98;14.50;;;;;;;21.56;100.00;99088.31;5072214;28;20200;-63
2022/09/01 00:04:37;;;;;;;17.40;14.65;;;;;;;21.49;100.00;99088.00;5072102;28;20203;-64
2022/09/01 00:07:05;;;;;;;16.98;14.65;;;;;;;21.46;100.00;99082.09;5071801;28;20199;-64
2022/09/01 00:09:34;;;;;;;15.75;14.25;;;;;;;21.42;100.00;99076.25;5071808;28;20207;-63
2022/09/01 00:12:03;;;;;;;16.10;14.65;;;;;;;21.42;100.00;99065.69;5071813;28;20318;-64
2022/09/01 00:14:32;;;;;;;15.95;14.40;;;;;;;21.32;100.00;99068.25;5071705;28;20199;-64
2022/09/01 00:17:01;;;;;;;16.23;14.63;;;;;;;21.28;100.00;99068.59;5052163;28;20576;-65
2022/09/01 00:19:29;;;;;;;17.77;14.13;;;;;;;21.25;100.00;99071.47;5051402;28;20193;-65
2022/09/01 00:21:56;;;;;;;16.77;14.35;;;;;;;21.14;100.00;99061.72;5051805;28;20665;-64
2022/09/01 00:24:24;;;;;;;15.68;14.02;;;;;;;21.27;100.00;99075.66;5051646;28;20226;-65
2022/09/01 00:26:53;;;;;;;17.67;14.02;;;;;;;21.25;100.00;99067.03;5051645;28;20204;-65
2022/09/01 00:29:20;;;;;;;15.27;13.75;;;;;;;21.31;100.00;99073.63;5051588;28;20196;-64
2022/09/01 00:31:48;;;;;;;14.80;13.25;;;;;;;21.39;100.00;99076.50;5045530;28;20226;-56
2022/09/01 00:34:16;;;;;;;14.75;13.38;;;;;;;21.37;100.00;99081.03;5051202;28;20206;-58
2022/09/01 00:36:43;;;;;;;15.05;13.45;;;;;;;21.50;100.00;99079.09;5040821;28;20300;-58
2022/09/01 00:39:10;;;;;;;15.10;13.60;;;;;;;21.45;100.00;99086.53;5041700;28;20194;-64
2022/09/01 00:41:43;;;;;;;15.45;13.68;;;;;;;21.28;100.00;99079.16;5041466;28;20232;-65
2022/09/01 00:44:14;;;;;;;15.23;13.25;;;;;;;21.16;100.00;99080.09;5047276;28;20623;-65
2022/09/01 00:46:44;;;;;;;18.77;14.50;;;;;;;21.07;100.00;99065.00;5040833;28;20231;-57
2022/09/01 00:49:14;;;;;;;16.17;14.48;;;;;;;21.05;100.00;99057.19;5041728;28;20285;-57
2022/09/01 00:51:44;;;;;;;15.32;13.73;;;;;;;21.00;100.00;99069.88;5040574;28;20193;-57
2022/09/01 00:54:15;;;;;;;19.63;14.15;;;;;;;20.92;100.00;99044.13;5039480;28;20220;-57
2022/09/01 00:56:43;;;;;;;17.83;14.70;;;;;;;21.12;100.00;99068.94;5040605;28;20236;-57
2022/09/01 00:59:12;;;;;;;17.73;14.80;;;;;;;21.11;100.00;99072.53;5041370;28;20196;-56
2022/09/01 01:01:40;;;;;;;17.20;14.25;;;;;;;21.03;100.00;99067.84;5040171;28;20209;-56
2022/09/01 01:04:13;;;;;;;15.93;14.38;;;;;;;20.88;100.00;99047.94;5039767;28;20200;-56
2022/09/01 01:06:42;;;;;;;18.13;14.90;;;;;;;21.02;100.00;99078.53;5030922;28;20704;-57
2022/09/01 01:09:09;;;;;;;18.48;16.25;;;;;;;21.03;100.00;99088.97;5030836;28;20194;-57
2022/09/01 01:11:37;;;;;;;21.38;16.58;;;;;;;20.96;100.00;99085.16;5030721;28;20198;-56
2022/09/01 01:14:10;;;;;;;19.55;17.48;;;;;;;20.88;100.00;99079.59;5030467;28;20228;-57
2022/09/01 01:16:42;;;;;;;20.35;18.33;;;;;;;20.82;100.00;99074.81;5030839;28;20667;-56
2022/09/01 01:23:00;;;;;;;19.75;17.67;;;;;;;20.81;100.00;99085.50;5030619;28;20292;-57
2022/09/01 01:24:51;;;;;;;22.65;19.95;;;;;;;20.59;100.00;99055.50;5030736;28;20716;-57
2022/09/01 01:27:20;;;;;;;22.42;19.17;;;;;;;20.65;100.00;99070.84;5030468;28;20197;-57
2022/09/01 01:29:49;;;;;;;24.55;20.17;;;;;;;20.61;100.00;99068.56;5030821;28;20519;-57
2022/09/01 01:32:16;;;;;;;25.45;20.80;;;;;;;20.50;100.00;99050.09;5030624;28;20712;-64
2022/09/01 01:34:45;;;;;;;21.73;19.67;;;;;;;20.56;100.00;99065.44;5030168;28;20197;-64
2022/09/01 01:37:14;;;;;;;22.17;19.55;;;;;;;20.53;100.00;99057.78;5030419;28;20251;-64
2022/09/01 01:39:43;;;;;;;22.60;19.98;;;;;;;20.49;100.00;99065.06;5030139;28;20197;-65
2022/09/01 01:42:12;;;;;;;22.90;20.52;;;;;;;20.41;100.00;99077.19;5030365;28;20639;-58
2022/09/01 01:44:39;;;;;;;22.98;20.65;;;;;;;20.29;100.00;99076.28;5030284;28;20288;-58
2022/09/01 01:47:11;;;;;;;27.67;21.27;;;;;;;20.30;100.00;99075.31;5030068;28;20209;-57
2022/09/01 01:49:42;;;;;;;23.38;21.00;;;;;;;20.28;100.00;99077.22;5030418;28;20205;-57
2022/09/01 01:52:13;;;;;;;23.88;19.85;;;;;;;20.21;100.00;99057.53;5029409;28;20288;-57
2022/09/01 01:54:41;;;;;;;23.10;20.45;;;;;;;20.29;100.00;99077.13;5030058;28;20240;-57
2022/09/01 01:57:08;;;;;;;25.70;21.75;;;;;;;20.42;100.00;99084.13;5030074;28;20224;-66
2022/09/01 01:59:37;;;;;;;24.02;20.88;;;;;;;20.36;100.00;99084.56;5031273;28;20201;-66
2022/09/01 02:02:07;;;;;;;23.25;20.65;;;;;;;20.37;100.00;99070.44;5029878;28;20314;-64
2022/09/01 02:04:34;;;;;;;24.05;21.67;;;;;;;20.44;100.00;99076.91;5029892;28;20197;-65
2022/09/01 02:07:01;;;;;;;28.40;24.05;;;;;;;20.42;100.00;99078.84;5029845;28;20197;-65
2022/09/01 02:09:28;;;;;;;25.25;22.73;;;;;;;20.34;100.00;99066.19;5029835;28;20201;-64
2022/09/01 02:11:56;;;;;;;25.88;23.08;;;;;;;20.39;100.00;99077.28;5030093;28;20713;-65
2022/09/01 02:14:23;;;;;;;26.67;23.60;;;;;;;20.44;100.00;99087.47;5029761;28;20657;-65
2022/09/01 02:16:54;;;;;;;26.67;23.13;;;;;;;20.48;100.00;99086.28;5029806;28;20205;-65
2022/09/01 02:19:22;;;;;;;26.92;23.23;;;;;;;20.52;100.00;99083.31;5030032;28;20201;-63
2022/09/01 02:21:53;;;;;;;27.70;23.80;;;;;;;20.53;100.00;99086.78;5029725;28;20199;-64
2022/09/01 02:24:20;;;;;;;29.58;23.83;;;;;;;20.45;100.00;99063.63;5029825;28;20198;-64
2022/09/01 02:26:47;;;;;;;26.50;23.52;;;;;;;20.44;100.00;99064.56;5029451;28;20201;-63
2022/09/01 02:29:17;;;;;;;29.05;23.77;;;;;;;20.55;100.00;99085.69;5029644;28;20201;-63
2022/09/01 02:31:46;;;;;;;32.75;24.23;;;;;;;20.48;100.00;99091.56;5029711;28;20201;-57
2022/09/01 02:34:15;;;;;;;29.00;23.58;;;;;;;20.49;100.00;99095.88;5029250;28;20221;-56
2022/09/01 02:36:46;;;;;;;28.80;22.88;;;;;;;20.47;100.00;99087.25;5029537;28;20717;-57
2022/09/01 02:39:14;;;;;;;26.77;23.85;;;;;;;20.48;100.00;99079.22;5029407;28;20244;-55
2022/09/01 02:41:41;;;;;;;25.73;22.83;;;;;;;20.56;100.00;99074.19;5029490;28;20263;-56
2022/09/01 02:44:11;;;;;;;27.60;22.42;;;;;;;20.53;100.00;99068.34;5029598;28;20193;-56
2022/09/01 02:46:40;;;;;;;23.58;21.15;;;;;;;20.36;100.00;99072.25;5029565;28;20565;-55
2022/09/01 02:49:14;;;;;;;24.48;21.48;;;;;;;20.29;100.00;99085.03;5029449;28;20205;-55
2022/09/01 02:51:43;;;;;;;23.85;21.20;;;;;;;20.28;100.00;99078.06;5029247;28;20224;-63
2022/09/01 02:54:16;;;;;;;24.58;22.17;;;;;;;20.37;100.00;99086.25;5029240;28;20237;-65
2022/09/01 02:56:47;;;;;;;22.60;20.30;;;;;;;20.43;100.00;99080.53;5029368;28;20201;-65
2022/09/01 02:59:14;;;;;;;24.40;20.20;;;;;;;20.41;100.00;99087.72;5029334;28;20193;-62
2022/09/01 03:01:46;;;;;;;23.45;21.05;;;;;;;20.28;100.00;99058.78;5029834;28;20700;-65
2022/09/01 03:04:14;;;;;;;27.90;20.42;;;;;;;20.40;100.00;99088.66;5030658;28;20197;-53
2022/09/01 03:06:43;;;;;;;23.67;18.73;;;;;;;20.31;100.00;99080.44;5033231;28;20201;-53
2022/09/01 03:09:13;;;;;;;21.38;18.67;;;;;;;20.25;100.00;99070.38;5033331;28;20288;-53
2022/09/01 03:11:42;;;;;;;20.45;18.35;;;;;;;20.17;100.00;99049.06;5033083;28;20290;-53
2022/09/01 03:14:09;;;;;;;20.60;18.50;;;;;;;20.22;100.00;99067.13;5033096;28;20601;-53
2022/09/01 03:16:37;;;;;;;22.02;19.88;;;;;;;20.21;100.00;99078.63;5032944;28;20193;-53
2022/09/01 03:19:07;;;;;;;25.13;18.65;;;;;;;20.20;100.00;99080.41;5035370;28;20280;-53
2022/09/01 03:21:35;;;;;;;21.25;18.88;;;;;;;20.14;100.00;99085.31;5043367;28;20197;-53
2022/09/01 03:24:04;;;;;;;22.05;19.73;;;;;;;20.03;100.00;99078.22;5041826;28;20200;-53
2022/09/01 03:26:31;;;;;;;29.35;20.88;;;;;;;19.94;100.00;99079.75;5041734;28;20199;-58
2022/09/01 03:28:59;;;;;;;23.15;20.55;;;;;;;19.86;100.00;99079.44;5044537;28;20227;-58
2022/09/01 03:31:27;;;;;;;22.42;20.13;;;;;;;19.71;100.00;99061.31;5045378;28;20275;-58
2022/09/01 03:33:55;;;;;;;22.77;20.35;;;;;;;19.77;100.00;99092.47;5046477;28;20221;-58
2022/09/01 03:36:23;;;;;;;25.20;20.08;;;;;;;19.72;100.00;99091.97;5053413;28;20588;-57
2022/09/01 03:38:52;;;;;;;27.80;20.85;;;;;;;19.69;100.00;99095.66;5046841;28;20196;-64
2022/09/01 03:41:23;;;;;;;24.85;21.40;;;;;;;19.77;100.00;99097.72;5045301;28;20200;-62
2022/09/01 03:43:53;;;;;;;23.58;20.30;;;;;;;19.70;100.00;99089.44;5041534;28;20684;-62
2022/09/01 03:46:21;;;;;;;27.42;20.48;;;;;;;19.66;100.00;99092.41;5041705;28;20202;-62
2022/09/01 03:48:50;;;;;;;25.88;20.42;;;;;;;19.58;100.00;99071.91;5044600;28;20279;-62
2022/09/01 03:51:19;;;;;;;27.33;20.42;;;;;;;19.81;100.00;99088.66;5041440;28;20582;-62
2022/09/01 03:53:46;;;;;;;22.65;20.27;;;;;;;19.86;100.00;99089.19;5039496;28;20216;-61
2022/09/01 03:56:15;;;;;;;24.15;18.90;;;;;;;19.80;100.00;99092.25;5040891;28;20197;-62
2022/09/01 03:58:45;;;;;;;25.40;19.02;;;;;;;19.82;100.00;99085.91;5041906;28;20227;-62
2022/09/01 04:01:14;;;;;;;23.40;19.95;;;;;;;19.73;100.00;99065.53;5036470;28;20210;-62
2022/09/01 04:03:43;;;;;;;21.23;18.95;;;;;;;19.82;100.00;99082.44;5031259;28;20288;-62
2022/09/01 04:06:11;;;;;;;20.40;18.30;;;;;;;19.90;100.00;99094.09;5031106;28;20198;-62
2022/09/01 04:08:38;;;;;;;23.38;18.77;;;;;;;19.92;100.00;99089.56;5031161;28;20197;-54
2022/09/01 04:11:12;;;;;;;21.25;19.05;;;;;;;19.94;100.00;99092.91;5030764;28;20203;-55
2022/09/01 04:13:40;;;;;;;25.10;18.98;;;;;;;20.04;100.00;99100.97;5031407;28;20228;-55
2022/09/01 04:18:04;;;;;;;22.48;18.67;;;;;;;20.10;100.00;99092.59;5037354;28;20210;-57
2022/09/01 04:19:14;;;;;;;19.73;17.67;;;;;;;20.17;100.00;99087.75;5050893;28;20684;-56
2022/09/01 04:21:43;;;;;;;24.50;19.90;;;;;;;20.21;100.00;99087.38;5050895;28;20255;-58
2022/09/01 04:24:12;;;;;;;25.23;18.55;;;;;;;20.28;100.00;99103.59;5050913;28;20197;-59
2022/09/01 04:26:39;;;;;;;31.88;18.95;;;;;;;20.26;100.00;99071.22;5050669;28;20208;-59
2022/09/01 04:29:08;;;;;;;20.00;17.95;;;;;;;20.48;100.00;99091.56;5050230;28;20262;-61
2022/09/01 04:31:39;;;;;;;26.83;18.33;;;;;;;20.81;100.00;99082.84;5051471;28;20204;-61
2022/09/01 04:34:12;;;;;;;25.63;19.30;;;;;;;21.41;100.00;99092.22;5049165;28;20216;-61
2022/09/01 04:36:42;;;;;;;22.85;17.23;;;;;;;22.17;100.00;99083.34;5047634;28;20243;-62
2022/09/01 04:39:10;;;;;;;18.58;16.30;;;;;;;23.17;100.00;99095.91;5048535;28;20188;-62
2022/09/01 04:41:39;;;;;;;35.47;16.85;;;;;;;23.93;100.00;99105.00;5051354;28;20224;-62
2022/09/01 04:44:08;;;;;;;26.33;16.17;;;;;;;24.23;98.73;99109.41;5050635;28;20644;-62
2022/09/01 04:46:41;;;;;;;27.23;15.63;;;;;;;24.53;95.05;99103.91;5050428;28;20204;-61
2022/09/01 04:49:09;;;;;;;33.95;15.88;;;;;;;25.17;92.11;99113.78;5051289;28;20583;-54
2022/09/01 04:51:38;;;;;;;19.35;14.00;;;;;;;26.16;85.63;99106.78;5051018;28;20314;-54
2022/09/01 04:54:11;;;;;;;22.70;14.40;;;;;;;26.75;82.00;99123.88;5050761;28;20236;-54
2022/09/01 04:56:39;;;;;;;24.63;12.90;;;;;;;27.48;77.50;99090.47;5050979;28;20255;-54
2022/09/01 04:59:07;;;;;;;23.15;12.10;;;;;;;27.92;75.04;99116.94;5050782;28;20195;-54
2022/09/01 05:01:42;;;;;;;39.55;14.43;;;;;;;28.66;73.22;99118.69;5051346;28;20688;-54
2022/09/01 05:04:11;;;;;;;16.23;11.63;;;;;;;29.21;70.29;99117.91;5050938;28;20725;-55
2022/09/01 05:06:41;;;;;;;16.02;10.68;;;;;;;29.71;68.18;99127.38;5050854;28;20227;-54
2022/09/01 05:09:09;;;;;;;41.40;12.10;;;;;;;30.22;65.33;99126.75;5050615;28;20669;-61
2022/09/01 05:11:37;;;;;;;18.88;12.00;;;;;;;30.73;63.33;99123.47;5050670;28;20283;-62
2022/09/01 05:14:05;;;;;;;21.75;10.10;;;;;;;31.24;60.49;99119.97;5050581;28;20228;-62
2022/09/01 05:16:33;;;;;;;11.80;9.80;;;;;;;31.71;58.92;99114.19;5050692;28;20189;-61
2022/09/01 05:19:02;;;;;;;11.63;9.70;;;;;;;32.48;56.53;99121.56;5050803;28;20193;-62
2022/09/01 05:21:29;;;;;;;13.90;8.88;;;;;;;32.71;54.08;99113.31;5050707;28;20287;-62
2022/09/01 05:23:59;;;;;;;10.88;9.90;;;;;;;31.62;56.61;99117.09;5050289;28;20196;-61
2022/09/01 05:26:29;;;;;;;12.63;10.27;;;;;;;31.22;58.36;99113.94;5050435;28;20205;-61
2022/09/01 05:28:59;;;;;;;14.52;11.52;;;;;;;31.24;58.48;99117.28;5050432;28;20299;-61
2022/09/01 05:31:32;;;;;;;12.88;11.00;;;;;;;31.61;57.59;99116.28;5050243;28;20291;-54
2022/09/01 05:34:00;;;;;;;15.82;12.85;;;;;;;32.20;56.00;99121.50;5050288;28;20227;-55
2022/09/01 05:36:32;;;;;;;12.13;10.88;;;;;;;32.68;54.92;99114.47;5050099;28;20223;-54
2022/09/01 05:38:59;;;;;;;18.38;11.10;;;;;;;32.93;53.78;99122.13;5050497;28;20197;-54
2022/09/01 05:41:27;;;;;;;15.07;10.93;;;;;;;32.98;52.99;99117.81;5050366;28;20642;-55
2022/09/01 05:43:54;;;;;;;15.48;10.30;;;;;;;33.41;52.45;99133.81;5049944;28;20250;-55
2022/09/01 05:46:23;;;;;;;19.58;11.35;;;;;;;34.14;50.25;99134.91;5050113;28;20562;-54
2022/09/01 05:48:52;;;;;;;12.00;10.93;;;;;;;34.62;48.36;99140.97;5049811;28;20591;-54
2022/09/01 05:51:21;;;;;;;12.82;10.93;;;;;;;34.94;46.91;99142.00;5049933;28;20207;-54
2022/09/01 05:53:50;;;;;;;19.15;10.85;;;;;;;35.09;46.13;99134.53;5049613;28;20607;-62
2022/09/01 05:56:19;;;;;;;19.23;12.07;;;;;;;35.45;45.96;99142.09;5049162;28;20193;-62
2022/09/01 05:58:47;;;;;;;18.25;10.80;;;;;;;35.58;44.87;99133.13;5049058;28;20197;-62
2022/09/01 06:01:21;;;;;;;11.98;10.95;;;;;;;35.28;45.68;99130.97;5049375;28;20228;-62
2022/09/01 06:03:51;;;;;;;13.38;10.50;;;;;;;35.43;45.83;99144.22;5049860;28;20737;-61
2022/09/01 06:06:20;;;;;;;11.55;10.43;;;;;;;35.06;46.12;99142.19;5049768;28;20661;-62
2022/09/01 06:08:49;;;;;;;12.52;10.68;;;;;;;34.68;46.70;99123.13;5049436;28;20196;-62
2022/09/01 06:11:16;;;;;;;11.00;9.55;;;;;;;35.52;45.50;99139.41;5049147;28;20283;-63
2022/09/01 06:13:45;;;;;;;11.35;10.05;;;;;;;35.75;44.90;99137.03;5048908;28;20721;-63
2022/09/01 06:16:14;;;;;;;11.20;10.27;;;;;;;36.38;43.18;99146.00;5048793;28;20191;-54
2022/09/01 06:18:42;;;;;;;10.85;9.40;;;;;;;36.36;42.75;99144.56;5044684;28;20583;-55
2022/09/01 06:21:13;;;;;;;15.80;12.70;;;;;;;36.14;42.60;99114.34;5048234;28;20249;-53
2022/09/01 06:23:41;;;;;;;10.77;9.73;;;;;;;36.55;41.54;99140.06;5048801;28;20207;-54
2022/09/01 06:26:17;;;;;;;10.45;9.75;;;;;;;36.20;42.44;99136.97;5049038;28;20200;-55
2022/09/01 06:28:44;;;;;;;9.95;9.05;;;;;;;36.17;42.17;99127.44;5048261;28;20192;-55
2022/09/01 06:31:12;;;;;;;9.40;8.50;;;;;;;36.63;40.99;99135.22;5048954;28;20203;-61
2022/09/01 06:33:39;;;;;;;11.38;9.20;;;;;;;37.05;40.22;99139.00;5049271;28;20208;-62
2022/09/01 06:36:08;;;;;;;9.77;9.00;;;;;;;37.39;38.90;99144.88;5049330;28;20196;-64
2022/09/01 06:38:36;;;;;;;10.32;9.13;;;;;;;37.70;37.98;99128.47;5048878;28;20196;-63
2022/09/01 06:41:11;;;;;;;11.98;8.75;;;;;;;38.26;37.22;99137.31;5043194;28;20676;-63
2022/09/01 06:43:43;;;;;;;12.68;9.25;;;;;;;38.69;36.51;99137.06;5037915;28;20201;-55
2022/09/01 06:46:10;;;;;;;12.32;9.45;;;;;;;39.09;35.59;99139.91;5039124;28;20204;-55
2022/09/01 06:48:45;;;;;;;9.95;8.93;;;;;;;39.05;35.14;99138.75;5039437;28;20197;-62
2022/09/01 06:51:14;;;;;;;22.33;10.27;;;;;;;39.28;35.04;99141.38;5041378;28;20203;-62
2022/09/01 06:53:41;;;;;;;32.95;11.45;;;;;;;39.37;34.82;99139.97;5045663;28;20207;-62
2022/09/01 06:56:12;;;;;;;17.58;9.52;;;;;;;39.88;33.64;99132.88;5048966;28;20593;-62
2022/09/01 06:58:47;;;;;;;10.65;9.55;;;;;;;39.39;33.98;99137.84;5049223;28;20593;-62
2022/09/01 07:01:18;;;;;;;13.00;9.23;;;;;;;39.08;34.66;99136.34;5049119;28;20290;-63
2022/09/01 07:03:47;;;;;;;20.08;9.98;;;;;;;39.47;33.93;99131.25;5045783;28;20204;-62
2022/09/01 07:06:14;;;;;;;23.75;10.23;;;;;;;40.04;33.19;99134.81;5034503;28;20200;-54
2022/09/01 07:08:48;;;;;;;18.88;10.48;;;;;;;40.09;33.03;99143.06;5035046;28;20586;-55
2022/09/01 07:11:22;;;;;;;12.50;9.40;;;;;;;39.55;34.45;99139.00;5049026;28;20208;-55
2022/09/01 07:13:52;;;;;;;10.55;9.32;;;;;;;39.24;33.62;99142.97;5048981;28;20594;-55
2022/09/01 07:16:21;;;;;;;10.30;9.32;;;;;;;38.74;34.99;99134.44;5049166;28;20257;-55
2022/09/01 07:18:49;;;;;;;12.77;10.45;;;;;;;39.31;34.06;99131.94;5048870;28;20235;-61
2022/09/01 07:21:16;;;;;;;15.05;10.15;;;;;;;40.02;32.81;99138.84;5048815;28;20206;-55
2022/09/01 07:23:43;;;;;;;13.25;11.77;;;;;;;40.78;31.80;99132.00;5049152;28;20299;-55
2022/09/01 07:26:13;;;;;;;10.82;9.82;;;;;;;41.11;31.23;99137.38;5049019;28;20655;-55
2022/09/01 07:28:40;;;;;;;13.32;10.55;;;;;;;41.17;31.53;99130.97;5048996;28;20202;-55
2022/09/01 07:31:09;;;;;;;15.52;11.00;;;;;;;40.32;32.21;99133.16;5048732;28;20239;-54
2022/09/01 07:33:35;;;;;;;11.70;10.57;;;;;;;39.41;33.97;99118.59;5046082;28;20206;-63
2022/09/01 07:36:04;;;;;;;14.35;10.45;;;;;;;39.42;33.90;99115.66;5039340;28;20710;-55
2022/09/01 07:38:31;;;;;;;21.83;19.52;;;;;;;39.03;34.21;99116.44;5038425;28;20201;-54
2022/09/01 07:40:58;;;;;;;11.95;9.20;;;;;;;39.00;34.71;99112.31;5037279;28;20200;-55
2022/09/01 07:43:27;;;;;;;11.00;9.85;;;;;;;39.51;33.71;99111.50;5042622;28;20765;-54
2022/09/01 07:45:58;;;;;;;11.02;9.93;;;;;;;40.46;32.43;99093.69;5048775;28;20204;-54
2022/09/01 07:48:28;;;;;;;16.80;10.35;;;;;;;40.61;32.03;99111.06;5049101;28;20607;-54
2022/09/01 07:50:57;;;;;;;10.98;9.55;;;;;;;40.05;33.09;99114.72;5049931;28;20219;-54
2022/09/01 07:53:30;;;;;;;11.55;10.35;;;;;;;39.77;33.24;99104.66;5052517;28;20590;-54
2022/09/01 07:55:59;;;;;;;10.90;9.85;;;;;;;40.94;31.08;99110.22;5052876;28;20277;-55
2022/09/01 07:58:30;;;;;;;10.48;9.52;;;;;;;41.57;30.24;99122.50;5045287;28;20204;-55
2022/09/01 08:01:01;;;;;;;9.98;9.07;;;;;;;41.20;30.44;99108.66;5044209;28;20665;-54
2022/09/01 08:03:30;;;;;;;12.82;9.63;;;;;;;41.85;30.08;99107.81;5043160;28;20587;-54
2022/09/01 08:06:05;;;;;;;10.77;9.68;;;;;;;42.03;28.94;99109.38;5040323;28;20196;-55
2022/09/01 08:08:32;;;;;;;12.32;9.00;;;;;;;41.46;29.67;99106.25;5040716;28;20202;-55
2022/09/01 08:11:00;;;;;;;13.73;9.15;;;;;;;41.60;29.44;99113.00;5042696;28;20200;-55
2022/09/01 08:13:27;;;;;;;19.40;9.18;;;;;;;41.88;28.59;99103.75;5041755;28;20228;-54
2022/09/01 08:15:54;;;;;;;21.75;9.73;;;;;;;42.54;27.79;99109.84;5040302;28;20618;-55
2022/09/01 08:18:24;;;;;;;24.00;8.82;;;;;;;42.53;27.02;99108.19;5042115;28;20196;-54
2022/09/01 08:20:52;;;;;;;46.47;11.25;;;;;;;42.53;26.70;99108.19;5042669;28;20228;-54
2022/09/01 08:23:25;;;;;;;20.17;8.85;;;;;;;43.03;26.69;99094.06;5042375;28;20202;-54
2022/09/01 08:25:53;;;;;;;11.60;7.88;;;;;;;42.57;27.50;99082.84;5042072;28;20211;-62
2022/09/01 08:28:22;;;;;;;12.02;7.97;;;;;;;42.83;27.11;99102.16;5040095;28;20330;-63
2022/09/01 08:30:49;;;;;;;14.23;8.65;;;;;;;42.17;28.26;99096.97;5031565;28;20752;-61
2022/09/01 08:33:16;;;;;;;30.02;9.50;;;;;;;40.56;31.76;99086.50;5032036;28;20575;-62
2022/09/01 08:35:46;;;;;;;10.32;8.85;;;;;;;40.56;30.53;99080.22;5031476;28;20255;-62
2022/09/01 08:38:15;;;;;;;15.07;8.98;;;;;;;41.24;29.83;99085.31;5032159;28;20199;-62
2022/09/01 08:40:49;;;;;;;10.38;8.70;;;;;;;41.56;29.08;99096.34;5032353;28;20595;-63
2022/09/01 08:43:26;;;;;;;9.20;8.30;;;;;;;41.37;29.27;99081.38;5041429;28;20245;-62
2022/09/01 08:45:55;;;;;;;13.35;8.30;;;;;;;39.98;31.91;99080.59;5051121;28;20196;-63
2022/09/01 08:48:31;;;;;;;12.30;8.20;;;;;;;39.36;31.93;99062.28;5051188;28;20262;-62
2022/09/01 08:51:06;;;;;;;20.20;9.15;;;;;;;39.57;32.29;99058.09;5051327;28;20206;-63
2022/09/01 08:53:41;;;;;;;34.45;10.80;;;;;;;40.28;30.91;99058.59;5050263;28;20191;-62
2022/09/01 08:56:11;;;;;;;16.23;9.13;;;;;;;40.90;29.84;99043.72;5050749;28;20313;-63
2022/09/01 08:58:38;;;;;;;11.70;8.43;;;;;;;40.95;29.95;99062.03;5050920;28;20192;-63
2022/09/01 09:01:18;;;;;;;14.60;8.60;;;;;;;41.37;29.88;99058.75;5051066;28;20239;-62
2022/09/01 09:04:02;;;;;;;15.13;8.93;;;;;;;41.67;29.59;99054.47;5051043;28;20254;-63
2022/09/01 09:06:37;;;;;;;25.58;8.70;;;;;;;40.70;30.45;99057.06;5050989;28;20218;-63
2022/09/01 09:09:08;;;;;;;12.82;8.27;;;;;;;40.17;30.98;99050.22;5050834;28;20224;-63
2022/09/01 09:11:53;;;;;;;13.40;7.63;;;;;;;40.34;30.88;99050.25;5050721;28;20202;-63
2022/09/01 09:14:35;;;;;;;13.50;7.65;;;;;;;40.97;29.82;99057.97;5050584;28;20206;-64
2022/09/01 09:17:03;;;;;;;9.63;6.90;;;;;;;40.62;29.82;99036.53;5050658;28;20199;-62
2022/09/01 09:19:33;;;;;;;10.18;6.82;;;;;;;41.25;28.76;99046.09;5050612;28;20485;-63
2022/09/01 09:22:02;;;;;;;12.27;6.72;;;;;;;40.64;29.54;99044.41;5046525;28;20270;-63
2022/09/01 09:24:47;;;;;;;11.88;6.80;;;;;;;40.12;30.58;99041.16;5037507;28;20196;-63
2022/09/01 09:27:19;;;;;;;7.65;6.38;;;;;;;40.36;30.58;99041.84;5030661;28;20331;-63
2022/09/01 09:29:49;;;;;;;8.38;6.50;;;;;;;39.90;30.74;99020.16;5031264;28;20561;-62
2022/09/01 09:32:17;;;;;;;11.20;7.57;;;;;;;40.05;30.71;99026.91;5030758;28;20291;-63
2022/09/01 09:34:44;;;;;;;7.25;6.60;;;;;;;39.82;31.06;99014.25;5030380;28;20311;-63
2022/09/01 09:37:23;;;;;;;10.65;7.85;;;;;;;41.11;29.65;99022.19;5030717;28;20205;-63
2022/09/01 09:40:13;;;;;;;8.80;6.60;;;;;;;40.04;30.31;99025.25;5031514;28;20596;-62
2022/09/01 09:42:43;;;;;;;11.70;7.00;;;;;;;40.21;29.43;99031.50;5038922;28;20668;-55
2022/09/01 09:45:25;;;;;;;7.70;7.03;;;;;;;39.43;31.38;99022.25;5030488;28;20200;-55
2022/09/01 09:47:54;;;;;;;6.95;6.25;;;;;;;39.74;30.57;99018.19;5030422;28;20292;-55
2022/09/01 09:50:25;;;;;;;6.70;5.63;;;;;;;40.54;29.05;99026.06;5034514;28;20189;-55
2022/09/01 09:53:11;;;;;;;8.38;6.22;;;;;;;41.15;28.78;98999.69;5038360;28;20208;-54
2022/09/01 09:55:53;;;;;;;7.35;6.65;;;;;;;40.93;28.87;99018.72;5040324;28;20847;-55
2022/09/01 09:58:25;;;;;;;7.95;6.40;;;;;;;40.12;30.11;99017.50;5040514;28;20202;-61
2022/09/01 10:01:09;;;;;;;10.18;6.85;;;;;;;38.70;32.68;99009.31;5040119;28;20283;-61
2022/09/01 10:03:41;;;;;;;10.18;6.80;;;;;;;37.48;34.88;99002.72;5035504;28;20724;-55
2022/09/01 10:06:12;;;;;;;8.15;7.35;;;;;;;36.12;37.58;98980.53;5030225;28;20192;-61
2022/09/01 10:08:46;;;;;;;10.43;7.50;;;;;;;35.03;40.16;98968.09;5039360;28;20610;-61
2022/09/01 10:11:29;;;;;;;13.23;8.35;;;;;;;34.05;42.87;98979.91;5040120;28;20701;-54
2022/09/01 10:13:57;;;;;;;19.50;8.80;;;;;;;33.18;45.32;98970.00;5039401;28;20197;-54
2022/09/01 10:16:28;;;;;;;9.52;8.05;;;;;;;32.83;46.74;98971.94;5037054;28;20223;-61
2022/09/01 10:18:59;;;;;;;9.55;8.15;;;;;;;32.36;48.57;98967.31;5044619;28;20193;-62
2022/09/01 10:21:30;;;;;;;11.40;7.88;;;;;;;32.33;49.77;98960.47;5043093;28;20634;-61
2022/09/01 10:23:58;;;;;;;9.82;7.80;;;;;;;32.09;48.99;98966.25;5038751;28;20199;-60
2022/09/01 10:26:32;;;;;;;9.10;7.88;;;;;;;31.92;49.82;98951.47;5038019;28;20195;-56
2022/09/01 10:29:06;;;;;;;14.40;7.78;;;;;;;31.84;50.36;98951.59;5038376;28;20197;-55
2022/09/01 10:31:33;;;;;;;8.38;7.57;;;;;;;31.74;49.48;98947.41;5042117;28;20204;-54
2022/09/01 10:34:04;;;;;;;9.23;7.20;;;;;;;31.56;51.17;98947.00;5039285;28;20283;-54
2022/09/01 10:36:32;;;;;;;9.85;6.90;;;;;;;31.45;50.75;98947.50;5042059;28;20217;-55
2022/09/01 10:38:59;;;;;;;12.98;7.70;;;;;;;31.47;52.36;98948.16;5039352;28;20585;-55
2022/09/01 10:41:50;;;;;;;10.05;8.02;;;;;;;31.51;52.14;98948.59;5046593;28;20207;-56
2022/09/01 10:44:30;;;;;;;13.77;8.65;;;;;;;31.41;52.23;98938.19;5049343;28;20275;-55
2022/09/01 10:47:00;;;;;;;8.30;7.47;;;;;;;31.39;52.42;98946.41;5043014;28;20205;-55
2022/09/01 10:49:59;;;;;;;11.60;8.10;;;;;;;31.45;52.77;98947.50;5031631;28;20197;-55
2022/09/01 10:52:56;;;;;;;12.50;8.35;;;;;;;31.49;52.48;98939.94;5029363;28;20201;-57
2022/09/01 10:55:26;;;;;;;10.80;8.98;;;;;;;31.55;52.91;98939.97;5036722;28;20232;-54
2022/09/01 10:58:08;;;;;;;17.45;9.20;;;;;;;31.44;53.08;98931.59;5041886;28;20203;-55
2022/09/01 11:00:49;;;;;;;13.55;8.70;;;;;;;31.53;53.55;98920.56;5042982;28;20197;-55
2022/09/01 11:03:49;;;;;;;10.25;9.18;;;;;;;31.69;52.88;98927.53;5042313;28;20200;-61
2022/09/01 11:06:52;;;;;;;13.35;8.50;;;;;;;31.62;52.68;98930.13;5049148;28;20657;-61
2022/09/01 11:09:23;;;;;;;16.13;7.38;;;;;;;31.62;52.41;98929.28;5037588;28;20197;-54
2022/09/01 11:12:11;;;;;;;8.57;7.78;;;;;;;31.52;52.01;98918.88;5039570;28;20196;-61
2022/09/01 11:14:50;;;;;;;8.18;7.40;;;;;;;31.45;52.23;98918.00;5039705;28;20630;-60
2022/09/01 11:17:21;;;;;;;9.07;8.18;;;;;;;31.45;51.86;98919.88;5039457;28;20196;-61
2022/09/01 11:19:57;;;;;;;10.85;7.45;;;;;;;31.49;52.11;98905.06;5039521;28;20259;-61
2022/09/01 11:22:31;;;;;;;10.98;8.18;;;;;;;31.70;52.12;98905.88;5039038;28;20189;-61
2022/09/01 11:25:37;;;;;;;7.88;7.05;;;;;;;31.71;50.97;98912.91;5040440;28;20200;-62
2022/09/01 11:28:26;;;;;;;13.02;7.97;;;;;;;31.48;50.67;98892.66;5043315;28;20215;-61
2022/09/01 11:30:59;;;;;;;8.90;7.53;;;;;;;31.37;50.99;98872.56;5043083;28;20198;-60
2022/09/01 11:33:41;;;;;;;8.98;7.85;;;;;;;31.68;51.15;98891.00;5042052;28;20275;-61
2022/09/01 11:36:14;;;;;;;13.10;6.88;;;;;;;31.72;49.94;98902.97;5042935;28;20252;-61
2022/09/01 11:38:49;;;;;;;12.65;7.22;;;;;;;31.75;49.63;98894.56;5044298;28;20212;-61
2022/09/01 11:41:31;;;;;;;11.73;6.88;;;;;;;31.60;48.98;98893.81;5043295;28;20725;-55